Burmah, Idaho
Current Conditions -  °F | °C
As of 9:53 AM on Friday 19 Dec 2014 (Local Time) from KJER Reporting Station
Overcast Overcast  
Wind Chill: 33°   Ceiling: 5000
Heat Index: 38°   Visibility: 10mi
Dew Point: 27°   Wind: 6mph
Humidity: 65%   Direction: 110°ESE
Pressure: 30.11"   Gusts: NA
Location:  43.0455°N, 113.979°W
Report Text: KJER 191653Z AUTO 11005KT 10SM FEW033 BKN050 OVC065 03/M03 A3011 RMK AO2 SLP206 T00331028
Loading
Personal Weather Stations






























Interactive Weather Map New forecast layout! Learn more

10-Day Weather Forecast

Advertisements
Track Severe Weather on mobile